sensor_id;sensor_type;location;lat;lon;timestamp;pressure;altitude;pressure_sealevel;temperature;humidity
47374;BME280;33123;50.118;10.272;2022-12-18T00:01:23;98916.13;;;-5.68;61.77
47374;BME280;33123;50.118;10.272;2022-12-18T00:03:51;98911.47;;;-5.74;62.08
47374;BME280;33123;50.118;10.272;2022-12-18T00:06:19;98913.34;;;-5.76;61.43
47374;BME280;33123;50.118;10.272;2022-12-18T00:08:46;98908.19;;;-5.76;61.55
47374;BME280;33123;50.118;10.272;2022-12-18T00:11:16;98911.66;;;-5.77;61.59
47374;BME280;33123;50.118;10.272;2022-12-18T00:13:43;98908.19;;;-5.76;61.39
47374;BME280;33123;50.118;10.272;2022-12-18T00:16:12;98911.66;;;-5.77;61.28
47374;BME280;33123;50.118;10.272;2022-12-18T00:18:39;98907.59;;;-5.80;61.36
47374;BME280;33123;50.118;10.272;2022-12-18T00:21:08;98900.22;;;-5.85;61.15
47374;BME280;33123;50.118;10.272;2022-12-18T00:23:36;98902.09;;;-5.87;62.13
47374;BME280;33123;50.118;10.272;2022-12-18T00:26:05;98861.16;;;-6.23;62.25
47374;BME280;33123;50.118;10.272;2022-12-18T00:28:34;98916.78;;;-5.89;62.73
47374;BME280;33123;50.118;10.272;2022-12-18T00:31:01;98917.50;;;-5.87;63.10
47374;BME280;33123;50.118;10.272;2022-12-18T00:33:28;98933.72;;;-5.86;62.75
47374;BME280;33123;50.118;10.272;2022-12-18T00:35:54;98919.81;;;-5.84;63.11
47374;BME280;33123;50.118;10.272;2022-12-18T00:38:26;98925.44;;;-5.78;62.99
47374;BME280;33123;50.118;10.272;2022-12-18T00:40:52;98917.06;;;-5.80;62.56
47374;BME280;33123;50.118;10.272;2022-12-18T00:43:19;98922.88;;;-5.78;62.60
47374;BME280;33123;50.118;10.272;2022-12-18T00:45:46;98923.00;;;-5.80;62.08
47374;BME280;33123;50.118;10.272;2022-12-18T00:48:12;98929.66;;;-5.77;62.33
47374;BME280;33123;50.118;10.272;2022-12-18T00:50:39;98932.56;;;-5.82;63.05
47374;BME280;33123;50.118;10.272;2022-12-18T00:53:06;98930.50;;;-5.77;62.85
47374;BME280;33123;50.118;10.272;2022-12-18T00:55:39;98937.25;;;-5.76;64.09
47374;BME280;33123;50.118;10.272;2022-12-18T00:58:07;98935.50;;;-5.75;63.37
47374;BME280;33123;50.118;10.272;2022-12-18T01:00:33;98938.78;;;-5.73;63.45
47374;BME280;33123;50.118;10.272;2022-12-18T01:03:02;98931.78;;;-5.71;62.81
47374;BME280;33123;50.118;10.272;2022-12-18T01:05:29;98927.47;;;-5.71;63.52
47374;BME280;33123;50.118;10.272;2022-12-18T01:07:56;98931.66;;;-5.70;63.31
47374;BME280;33123;50.118;10.272;2022-12-18T01:10:23;98929.91;;;-5.69;63.10
47374;BME280;33123;50.118;10.272;2022-12-18T01:12:50;98847.53;;;-6.24;63.31
47374;BME280;33123;50.118;10.272;2022-12-18T01:15:18;98939.97;;;-5.66;62.67
47374;BME280;33123;50.118;10.272;2022-12-18T01:21:20;98957.59;;;-5.62;62.79
47374;BME280;33123;50.118;10.272;2022-12-18T01:23:51;98961.69;;;-5.59;62.45
47374;BME280;33123;50.118;10.272;2022-12-18T01:26:18;98960.88;;;-5.60;62.49
47374;BME280;33123;50.118;10.272;2022-12-18T01:28:45;98961.69;;;-5.59;63.10
47374;BME280;33123;50.118;10.272;2022-12-18T01:31:13;98958.19;;;-5.58;62.73
47374;BME280;33123;50.118;10.272;2022-12-18T01:33:40;98966.03;;;-5.60;62.99
47374;BME280;33123;50.118;10.272;2022-12-18T01:36:07;98970.09;;;-5.57;62.86
47374;BME280;33123;50.118;10.272;2022-12-18T01:38:35;98966.38;;;-5.53;62.47
47374;BME280;33123;50.118;10.272;2022-12-18T01:41:02;98967.06;;;-5.51;62.81
47374;BME280;33123;50.118;10.272;2022-12-18T01:43:56;98962.66;;;-5.49;62.15
47374;BME280;33123;50.118;10.272;2022-12-18T01:46:24;98918.47;;;-5.76;61.68
47374;BME280;33123;50.118;10.272;2022-12-18T01:48:53;98951.19;;;-5.56;61.89
47374;BME280;33123;50.118;10.272;2022-12-18T01:51:21;98969.88;;;-5.54;62.51
47374;BME280;33123;50.118;10.272;2022-12-18T01:53:50;98962.41;;;-5.57;62.57
47374;BME280;33123;50.118;10.272;2022-12-18T01:56:18;98961.56;;;-5.58;61.96
47374;BME280;33123;50.118;10.272;2022-12-18T01:58:59;98960.75;;;-5.58;61.35
47374;BME280;33123;50.118;10.272;2022-12-18T02:01:27;98959.34;;;-5.62;61.17
47374;BME280;33123;50.118;10.272;2022-12-18T02:03:55;98965.66;;;-5.66;61.20
47374;BME280;33123;50.118;10.272;2022-12-18T02:06:28;98959.31;;;-5.73;61.45
47374;BME280;33123;50.118;10.272;2022-12-18T02:09:04;98954.41;;;-5.76;62.13
47374;BME280;33123;50.118;10.272;2022-12-18T02:11:42;98964.91;;;-5.79;62.15
47374;BME280;33123;50.118;10.272;2022-12-18T02:14:18;98964.91;;;-5.79;62.62
47374;BME280;33123;50.118;10.272;2022-12-18T02:16:53;98956.00;;;-5.87;62.70
47374;BME280;33123;50.118;10.272;2022-12-18T02:19:46;98959.16;;;-5.83;62.95
47374;BME280;33123;50.118;10.272;2022-12-18T02:28:19;98948.88;;;-5.83;62.03
47374;BME280;33123;50.118;10.272;2022-12-18T02:30:48;98890.13;;;-6.21;62.66
47374;BME280;33123;50.118;10.272;2022-12-18T02:33:19;98943.28;;;-5.88;61.80
47374;BME280;33123;50.118;10.272;2022-12-18T02:35:50;98934.88;;;-5.90;61.57
47374;BME280;33123;50.118;10.272;2022-12-18T02:38:19;98927.75;;;-5.98;61.68
47374;BME280;33123;50.118;10.272;2022-12-18T02:40:46;98895.56;;;-6.26;61.44
47374;BME280;33123;50.118;10.272;2022-12-18T02:43:14;98915.03;;;-6.23;61.62
47374;BME280;33123;50.118;10.272;2022-12-18T02:45:49;98944.09;;;-5.99;61.05
47374;BME280;33123;50.118;10.272;2022-12-18T02:48:18;98943.50;;;-6.02;61.65
47374;BME280;33123;50.118;10.272;2022-12-18T02:50:52;98939.41;;;-6.05;61.27
47374;BME280;33123;50.118;10.272;2022-12-18T02:53:27;98949.06;;;-6.08;61.00
47374;BME280;33123;50.118;10.272;2022-12-18T02:56:02;98942.50;;;-6.13;60.58
47374;BME280;33123;50.118;10.272;2022-12-18T02:58:37;98941.69;;;-6.13;60.88
47374;BME280;33123;50.118;10.272;2022-12-18T03:01:11;98939.44;;;-6.18;60.91
47374;BME280;33123;50.118;10.272;2022-12-18T03:04:02;98944.81;;;-6.21;60.20
47374;BME280;33123;50.118;10.272;2022-12-18T03:06:35;98939.06;;;-6.24;59.99
47374;BME280;33123;50.118;10.272;2022-12-18T03:09:06;98940.22;;;-6.28;60.39
47374;BME280;33123;50.118;10.272;2022-12-18T03:11:36;98944.84;;;-6.33;60.51
47374;BME280;33123;50.118;10.272;2022-12-18T03:14:24;98961.47;;;-6.39;59.58
47374;BME280;33123;50.118;10.272;2022-12-18T03:16:56;98955.97;;;-6.46;60.51
47374;BME280;33123;50.118;10.272;2022-12-18T03:19:43;98959.66;;;-6.50;61.38
47374;BME280;33123;50.118;10.272;2022-12-18T03:22:12;98955.78;;;-6.55;60.75
47374;BME280;33123;50.118;10.272;2022-12-18T03:24:39;98961.84;;;-6.56;60.75
47374;BME280;33123;50.118;10.272;2022-12-18T03:27:10;98954.38;;;-6.59;59.78
47374;BME280;33123;50.118;10.272;2022-12-18T03:29:41;98950.28;;;-6.62;60.10
47374;BME280;33123;50.118;10.272;2022-12-18T03:32:14;98939.75;;;-6.70;60.04
47374;BME280;33123;50.118;10.272;2022-12-18T03:34:44;98955.81;;;-6.68;60.07
47374;BME280;33123;50.118;10.272;2022-12-18T03:37:12;98956.06;;;-6.71;59.33
47374;BME280;33123;50.118;10.272;2022-12-18T03:39:39;98953.19;;;-6.79;59.46
47374;BME280;33123;50.118;10.272;2022-12-18T03:42:10;98948.06;;;-6.79;59.62
47374;BME280;33123;50.118;10.272;2022-12-18T03:44:45;98951.75;;;-6.83;59.62
47374;BME280;33123;50.118;10.272;2022-12-18T03:47:20;98950.13;;;-6.84;60.55
47374;BME280;33123;50.118;10.272;2022-12-18T03:49:57;98947.16;;;-6.91;61.37
47374;BME280;33123;50.118;10.272;2022-12-18T03:52:27;98955.66;;;-6.91;61.92
47374;BME280;33123;50.118;10.272;2022-12-18T03:54:56;98949.31;;;-6.85;61.86
47374;BME280;33123;50.118;10.272;2022-12-18T03:57:26;98953.41;;;-6.82;61.29
47374;BME280;33123;50.118;10.272;2022-12-18T03:59:56;98954.94;;;-6.80;61.22
47374;BME280;33123;50.118;10.272;2022-12-18T04:02:26;98959.13;;;-6.79;61.34
47374;BME280;33123;50.118;10.272;2022-12-18T04:04:57;98958.31;;;-6.79;62.16
47374;BME280;33123;50.118;10.272;2022-12-18T04:07:25;98956.47;;;-6.77;61.79
47374;BME280;33123;50.118;10.272;2022-12-18T04:09:55;98953.00;;;-6.76;61.44
47374;BME280;33123;50.118;10.272;2022-12-18T04:12:24;98952.09;;;-6.88;62.03
47374;BME280;33123;50.118;10.272;2022-12-18T04:14:51;98965.69;;;-6.75;61.97
47374;BME280;33123;50.118;10.272;2022-12-18T04:17:18;98969.78;;;-6.72;62.06
47374;BME280;33123;50.118;10.272;2022-12-18T04:19:46;98965.69;;;-6.75;61.61
47374;BME280;33123;50.118;10.272;2022-12-18T04:22:12;98966.50;;;-6.74;62.04
47374;BME280;33123;50.118;10.272;2022-12-18T04:24:39;98958.13;;;-6.76;62.20
47374;BME280;33123;50.118;10.272;2022-12-18T04:27:06;98954.81;;;-6.78;60.95
47374;BME280;33123;50.118;10.272;2022-12-18T04:29:33;98954.00;;;-6.79;60.34
47374;BME280;33123;50.118;10.272;2022-12-18T04:32:00;98955.06;;;-6.81;60.81
47374;BME280;33123;50.118;10.272;2022-12-18T04:34:26;98955.97;;;-6.82;60.41
47374;BME280;33123;50.118;10.272;2022-12-18T04:36:54;98962.81;;;-6.83;61.09
47374;BME280;33123;50.118;10.272;2022-12-18T04:39:21;98955.47;;;-6.87;61.09
47374;BME280;33123;50.118;10.272;2022-12-18T04:41:47;98959.56;;;-6.85;61.00
47374;BME280;33123;50.118;10.272;2022-12-18T04:44:14;98953.00;;;-6.89;59.78
47374;BME280;33123;50.118;10.272;2022-12-18T04:46:41;98970.03;;;-6.88;60.39
47374;BME280;33123;50.118;10.272;2022-12-18T04:49:07;98983.84;;;-6.91;60.24
47374;BME280;33123;50.118;10.272;2022-12-18T04:51:35;98984.78;;;-6.92;59.99
47374;BME280;33123;50.118;10.272;2022-12-18T04:57:31;98991.25;;;-6.99;60.33
47374;BME280;33123;50.118;10.272;2022-12-18T04:59:58;98992.56;;;-7.06;59.61
47374;BME280;33123;50.118;10.272;2022-12-18T05:02:33;98984.38;;;-7.11;59.58
47374;BME280;33123;50.118;10.272;2022-12-18T05:05:00;98942.88;;;-7.41;59.43
47374;BME280;33123;50.118;10.272;2022-12-18T05:07:27;98982.56;;;-7.22;59.64
47374;BME280;33123;50.118;10.272;2022-12-18T05:09:53;98979.25;;;-7.24;59.20
47374;BME280;33123;50.118;10.272;2022-12-18T05:16:02;98993.59;;;-7.34;59.33
47374;BME280;33123;50.118;10.272;2022-12-18T05:18:29;99003.13;;;-7.36;59.81
47374;BME280;33123;50.118;10.272;2022-12-18T05:20:56;98990.84;;;-7.43;60.10
47374;BME280;33123;50.118;10.272;2022-12-18T05:23:24;98998.28;;;-7.40;61.10
47374;BME280;33123;50.118;10.272;2022-12-18T05:25:51;99008.53;;;-7.40;60.85
47374;BME280;33123;50.118;10.272;2022-12-18T05:28:18;99006.78;;;-7.40;61.51
47374;BME280;33123;50.118;10.272;2022-12-18T05:30:48;99016.03;;;-7.37;60.68
47374;BME280;33123;50.118;10.272;2022-12-18T05:33:16;99013.25;;;-7.34;60.70
47374;BME280;33123;50.118;10.272;2022-12-18T05:38:59;99011.44;;;-7.32;59.78
47374;BME280;33123;50.118;10.272;2022-12-18T05:41:26;99004.66;;;-7.33;59.96
47374;BME280;33123;50.118;10.272;2022-12-18T05:43:53;99007.44;;;-7.36;59.71
47374;BME280;33123;50.118;10.272;2022-12-18T05:46:19;99012.66;;;-7.38;59.90
47374;BME280;33123;50.118;10.272;2022-12-18T05:48:47;99011.09;;;-7.40;59.79
47374;BME280;33123;50.118;10.272;2022-12-18T05:51:18;99008.53;;;-7.40;60.05
47374;BME280;33123;50.118;10.272;2022-12-18T05:53:45;98999.34;;;-7.43;59.97
47374;BME280;33123;50.118;10.272;2022-12-18T05:56:14;99001.97;;;-7.45;61.07
47374;BME280;33123;50.118;10.272;2022-12-18T05:58:41;98903.69;;;-8.07;62.69
47374;BME280;33123;50.118;10.272;2022-12-18T06:01:10;99000.56;;;-7.49;64.43
47374;BME280;33123;50.118;10.272;2022-12-18T06:03:37;99006.69;;;-7.38;66.22
47374;BME280;33123;50.118;10.272;2022-12-18T06:06:12;99010.09;;;-7.25;66.76
47374;BME280;33123;50.118;10.272;2022-12-18T06:08:39;99015.97;;;-7.10;66.30
47374;BME280;33123;50.118;10.272;2022-12-18T06:11:06;99021.06;;;-6.98;65.50
47374;BME280;33123;50.118;10.272;2022-12-18T06:13:33;99033.25;;;-6.88;63.48
47374;BME280;33123;50.118;10.272;2022-12-18T06:16:02;99038.91;;;-6.83;61.75
47374;BME280;33123;50.118;10.272;2022-12-18T06:18:28;99043.31;;;-6.85;61.73
47374;BME280;33123;50.118;10.272;2022-12-18T06:20:55;99043.50;;;-6.88;61.38
47374;BME280;33123;50.118;10.272;2022-12-18T06:23:23;99042.09;;;-6.93;60.37
47374;BME280;33123;50.118;10.272;2022-12-18T06:25:50;99035.72;;;-7.00;59.92
47374;BME280;33123;50.118;10.272;2022-12-18T06:28:17;99037.06;;;-7.07;59.85
47374;BME280;33123;50.118;10.272;2022-12-18T06:30:43;99033.97;;;-7.12;59.73
47374;BME280;33123;50.118;10.272;2022-12-18T06:33:10;99042.81;;;-7.16;60.05
47374;BME280;33123;50.118;10.272;2022-12-18T06:35:37;99049.97;;;-7.21;59.22
47374;BME280;33123;50.118;10.272;2022-12-18T06:38:03;99051.19;;;-7.27;60.16
47374;BME280;33123;50.118;10.272;2022-12-18T06:40:31;99052.41;;;-7.32;60.30
47374;BME280;33123;50.118;10.272;2022-12-18T06:42:58;99050.13;;;-7.37;60.15
47374;BME280;33123;50.118;10.272;2022-12-18T06:45:25;99049.41;;;-7.39;60.12
47374;BME280;33123;50.118;10.272;2022-12-18T06:47:51;99039.25;;;-7.40;60.45
47374;BME280;33123;50.118;10.272;2022-12-18T06:50:18;99031.69;;;-7.42;60.16
47374;BME280;33123;50.118;10.272;2022-12-18T06:52:45;99027.06;;;-7.50;60.11
47374;BME280;33123;50.118;10.272;2022-12-18T06:55:11;99035.38;;;-7.46;60.63
47374;BME280;33123;50.118;10.272;2022-12-18T06:57:39;99030.47;;;-7.49;61.53
47374;BME280;33123;50.118;10.272;2022-12-18T07:00:07;99039.66;;;-7.47;62.40
47374;BME280;33123;50.118;10.272;2022-12-18T07:02:34;99042.13;;;-7.45;63.15
47374;BME280;33123;50.118;10.272;2022-12-18T07:05:01;99039.25;;;-7.40;63.01
47374;BME280;33123;50.118;10.272;2022-12-18T07:07:28;99049.09;;;-7.34;63.39
47374;BME280;33123;50.118;10.272;2022-12-18T07:09:54;99039.50;;;-7.31;62.40
47374;BME280;33123;50.118;10.272;2022-12-18T07:12:21;99043.59;;;-7.28;61.92
47374;BME280;33123;50.118;10.272;2022-12-18T07:14:49;99046.88;;;-7.26;62.88
47374;BME280;33123;50.118;10.272;2022-12-18T07:17:15;99038.16;;;-7.36;64.09
47374;BME280;33123;50.118;10.272;2022-12-18T07:19:42;99056.72;;;-7.20;64.60
47374;BME280;33123;50.118;10.272;2022-12-18T07:22:09;99058.06;;;-7.14;64.94
47374;BME280;33123;50.118;10.272;2022-12-18T07:24:35;99064.53;;;-7.09;63.97
47374;BME280;33123;50.118;10.272;2022-12-18T07:27:02;99071.50;;;-6.98;64.15
47374;BME280;33123;50.118;10.272;2022-12-18T07:29:29;99079.50;;;-6.90;64.65
47374;BME280;33123;50.118;10.272;2022-12-18T07:31:58;99085.34;;;-6.88;64.32
47374;BME280;33123;50.118;10.272;2022-12-18T07:34:25;99095.09;;;-6.80;63.67
47374;BME280;33123;50.118;10.272;2022-12-18T07:36:52;99093.97;;;-6.76;63.81
47374;BME280;33123;50.118;10.272;2022-12-18T07:39:19;99097.75;;;-6.69;63.69
47374;BME280;33123;50.118;10.272;2022-12-18T07:41:45;99103.28;;;-6.62;63.19
47374;BME280;33123;50.118;10.272;2022-12-18T07:44:32;99097.66;;;-6.55;62.44
47374;BME280;33123;50.118;10.272;2022-12-18T07:47:01;99114.28;;;-6.48;62.78
47374;BME280;33123;50.118;10.272;2022-12-18T07:49:27;99108.72;;;-6.42;63.78
47374;BME280;33123;50.118;10.272;2022-12-18T07:51:55;99116.81;;;-6.35;64.05
47374;BME280;33123;50.118;10.272;2022-12-18T07:54:21;99109.81;;;-6.33;63.37
47374;BME280;33123;50.118;10.272;2022-12-18T07:56:48;99115.59;;;-6.29;63.76
47374;BME280;33123;50.118;10.272;2022-12-18T07:59:15;99109.00;;;-6.21;63.99
47374;BME280;33123;50.118;10.272;2022-12-18T08:01:41;99113.50;;;-6.12;64.72
47374;BME280;33123;50.118;10.272;2022-12-18T08:04:09;99124.00;;;-6.15;65.07
47374;BME280;33123;50.118;10.272;2022-12-18T08:06:37;99118.81;;;-6.02;64.36
47374;BME280;33123;50.118;10.272;2022-12-18T08:09:10;99115.00;;;-5.96;65.46
47374;BME280;33123;50.118;10.272;2022-12-18T08:11:36;99111.78;;;-5.87;64.07
47374;BME280;33123;50.118;10.272;2022-12-18T08:14:03;99113.81;;;-5.79;64.05
47374;BME280;33123;50.118;10.272;2022-12-18T08:16:30;99123.63;;;-5.73;64.74
47374;BME280;33123;50.118;10.272;2022-12-18T08:18:56;99108.03;;;-5.70;64.39
47374;BME280;33123;50.118;10.272;2022-12-18T08:21:26;99124.69;;;-5.52;63.99
47374;BME280;33123;50.118;10.272;2022-12-18T08:23:55;99118.09;;;-5.43;64.15
47374;BME280;33123;50.118;10.272;2022-12-18T08:26:22;99113.22;;;-5.35;63.51
47374;BME280;33123;50.118;10.272;2022-12-18T08:28:49;99123.88;;;-5.28;63.45
47374;BME280;33123;50.118;10.272;2022-12-18T08:31:16;99136.28;;;-5.22;63.63
47374;BME280;33123;50.118;10.272;2022-12-18T08:33:43;99123.69;;;-5.14;63.71
47374;BME280;33123;50.118;10.272;2022-12-18T08:36:10;99125.09;;;-5.21;63.56
47374;BME280;33123;50.118;10.272;2022-12-18T08:38:39;99124.41;;;-5.12;64.06
47374;BME280;33123;50.118;10.272;2022-12-18T08:41:07;99131.78;;;-5.08;63.63
47374;BME280;33123;50.118;10.272;2022-12-18T08:43:34;99131.94;;;-4.98;63.94
47374;BME280;33123;50.118;10.272;2022-12-18T08:46:19;99126.56;;;-4.95;63.23
47374;BME280;33123;50.118;10.272;2022-12-18T08:48:45;99124.25;;;-4.87;63.88
47374;BME280;33123;50.118;10.272;2022-12-18T08:51:12;99107.41;;;-4.91;63.56
47374;BME280;33123;50.118;10.272;2022-12-18T08:53:40;99110.94;;;-4.81;63.26
47374;BME280;33123;50.118;10.272;2022-12-18T08:56:07;99109.78;;;-4.76;63.50
47374;BME280;33123;50.118;10.272;2022-12-18T08:58:34;99116.44;;;-4.74;63.41
47374;BME280;33123;50.118;10.272;2022-12-18T09:01:02;99114.56;;;-4.72;64.08
47374;BME280;33123;50.118;10.272;2022-12-18T09:03:29;99112.59;;;-4.68;63.91
47374;BME280;33123;50.118;10.272;2022-12-18T09:05:56;99113.75;;;-4.72;64.03
47374;BME280;33123;50.118;10.272;2022-12-18T09:08:23;99107.94;;;-4.63;63.80
47374;BME280;33123;50.118;10.272;2022-12-18T09:10:51;99112.47;;;-4.67;64.56
47374;BME280;33123;50.118;10.272;2022-12-18T09:13:18;99109.69;;;-4.64;63.89
47374;BME280;33123;50.118;10.272;2022-12-18T09:15:47;99103.91;;;-4.79;65.59
47374;BME280;33123;50.118;10.272;2022-12-18T09:18:15;99102.97;;;-4.78;65.10
47374;BME280;33123;50.118;10.272;2022-12-18T09:20:42;99102.56;;;-4.71;65.67
47374;BME280;33123;50.118;10.272;2022-12-18T09:23:09;99093.91;;;-4.70;64.88
47374;BME280;33123;50.118;10.272;2022-12-18T09:25:37;99107.47;;;-4.57;65.56
47374;BME280;33123;50.118;10.272;2022-12-18T09:28:09;99104.31;;;-4.61;65.00
47374;BME280;33123;50.118;10.272;2022-12-18T09:30:45;99108.41;;;-4.58;65.44
47374;BME280;33123;50.118;10.272;2022-12-18T09:33:12;99105.72;;;-4.57;65.38
47374;BME280;33123;50.118;10.272;2022-12-18T09:35:39;99074.81;;;-4.68;65.54
47374;BME280;33123;50.118;10.272;2022-12-18T09:38:08;99090.19;;;-4.55;66.20
47374;BME280;33123;50.118;10.272;2022-12-18T09:40:41;99098.59;;;-4.42;65.82
47374;BME280;33123;50.118;10.272;2022-12-18T09:43:14;99102.78;;;-4.52;65.70
47374;BME280;33123;50.118;10.272;2022-12-18T09:45:45;99100.91;;;-4.50;66.40
47374;BME280;33123;50.118;10.272;2022-12-18T09:48:18;99104.22;;;-4.37;66.66
47374;BME280;33123;50.118;10.272;2022-12-18T09:50:46;99104.69;;;-4.32;65.81
47374;BME280;33123;50.118;10.272;2022-12-18T09:53:17;99118.25;;;-4.30;65.77
47374;BME280;33123;50.118;10.272;2022-12-18T09:55:47;99098.59;;;-4.19;65.48
47374;BME280;33123;50.118;10.272;2022-12-18T09:58:20;99085.25;;;-4.13;65.21
47374;BME280;33123;50.118;10.272;2022-12-18T10:00:52;99086.19;;;-4.03;65.48
47374;BME280;33123;50.118;10.272;2022-12-18T10:03:20;99097.28;;;-3.91;65.61
47374;BME280;33123;50.118;10.272;2022-12-18T10:05:55;99102.44;;;-3.91;65.07
47374;BME280;33123;50.118;10.272;2022-12-18T10:08:36;99098.91;;;-3.90;64.57
47374;BME280;33123;50.118;10.272;2022-12-18T10:11:25;99105.34;;;-3.96;65.41
47374;BME280;33123;50.118;10.272;2022-12-18T10:14:00;99107.56;;;-3.91;65.67
47374;BME280;33123;50.118;10.272;2022-12-18T10:16:36;99099.50;;;-3.87;65.54
47374;BME280;33123;50.118;10.272;2022-12-18T10:19:18;99105.13;;;-3.93;66.12
47374;BME280;33123;50.118;10.272;2022-12-18T10:21:52;99104.91;;;-4.12;66.32
47374;BME280;33123;50.118;10.272;2022-12-18T10:24:32;99091.81;;;-4.09;65.86
47374;BME280;33123;50.118;10.272;2022-12-18T10:27:11;99077.78;;;-4.16;66.27
47374;BME280;33123;50.118;10.272;2022-12-18T10:29:40;99082.19;;;-3.96;66.43
47374;BME280;33123;50.118;10.272;2022-12-18T10:32:12;99077.59;;;-3.81;66.45
47374;BME280;33123;50.118;10.272;2022-12-18T10:34:41;99072.97;;;-3.66;66.94
47374;BME280;33123;50.118;10.272;2022-12-18T10:37:12;99077.72;;;-3.51;65.76
47374;BME280;33123;50.118;10.272;2022-12-18T10:39:42;99081.22;;;-3.40;65.54
47374;BME280;33123;50.118;10.272;2022-12-18T10:42:10;99085.88;;;-3.34;65.06
47374;BME280;33123;50.118;10.272;2022-12-18T10:44:40;99090.19;;;-3.35;65.58
47374;BME280;33123;50.118;10.272;2022-12-18T10:47:12;99093.50;;;-3.33;65.73
47374;BME280;33123;50.118;10.272;2022-12-18T10:49:42;99087.25;;;-3.30;66.12
47374;BME280;33123;50.118;10.272;2022-12-18T10:52:16;99069.34;;;-3.32;65.80
47374;BME280;33123;50.118;10.272;2022-12-18T10:54:48;99074.31;;;-3.19;65.56
47374;BME280;33123;50.118;10.272;2022-12-18T10:57:17;99074.91;;;-3.15;65.57
47374;BME280;33123;50.118;10.272;2022-12-18T10:59:57;99075.06;;;-3.07;65.34
47374;BME280;33123;50.118;10.272;2022-12-18T11:02:27;99078.78;;;-3.00;65.09
47374;BME280;33123;50.118;10.272;2022-12-18T11:04:59;99073.53;;;-2.99;65.26
47374;BME280;33123;50.118;10.272;2022-12-18T11:07:46;99073.53;;;-2.99;64.70
47374;BME280;33123;50.118;10.272;2022-12-18T11:10:17;99072.72;;;-2.99;65.25
47374;BME280;33123;50.118;10.272;2022-12-18T11:12:44;99066.09;;;-2.92;65.33
47374;BME280;33123;50.118;10.272;2022-12-18T11:15:16;99064.03;;;-2.98;64.79
47374;BME280;33123;50.118;10.272;2022-12-18T11:17:46;99064.91;;;-2.88;64.61
47374;BME280;33123;50.118;10.272;2022-12-18T11:20:22;99060.41;;;-2.86;65.36
47374;BME280;33123;50.118;10.272;2022-12-18T11:22:55;99056.44;;;-2.69;65.13
47374;BME280;33123;50.118;10.272;2022-12-18T11:25:23;99054.00;;;-2.71;64.64
47374;BME280;33123;50.118;10.272;2022-12-18T11:27:52;99050.63;;;-2.61;64.74
47374;BME280;33123;50.118;10.272;2022-12-18T11:30:26;99044.78;;;-2.63;64.23
47374;BME280;33123;50.118;10.272;2022-12-18T11:32:55;99050.91;;;-2.64;64.36
47374;BME280;33123;50.118;10.272;2022-12-18T11:35:30;99057.88;;;-2.55;64.47
47374;BME280;33123;50.118;10.272;2022-12-18T11:38:02;99042.78;;;-2.60;64.46
47374;BME280;33123;50.118;10.272;2022-12-18T11:40:35;99024.31;;;-2.86;64.33
47374;BME280;33123;50.118;10.272;2022-12-18T11:43:06;99043.16;;;-2.64;64.24
47374;BME280;33123;50.118;10.272;2022-12-18T11:45:41;99046.84;;;-2.57;63.84
47374;BME280;33123;50.118;10.272;2022-12-18T11:48:14;99042.34;;;-2.65;64.18
47374;BME280;33123;50.118;10.272;2022-12-18T11:50:47;99029.97;;;-2.71;64.20
47374;BME280;33123;50.118;10.272;2022-12-18T11:53:16;99029.97;;;-2.61;64.69
47374;BME280;33123;50.118;10.272;2022-12-18T11:55:51;99027.59;;;-2.53;64.66
47374;BME280;33123;50.118;10.272;2022-12-18T11:58:45;99024.56;;;-2.58;64.45
47374;BME280;33123;50.118;10.272;2022-12-18T12:01:27;99014.47;;;-2.71;64.06
47374;BME280;33123;50.118;10.272;2022-12-18T12:04:08;98997.28;;;-2.51;64.34
47374;BME280;33123;50.118;10.272;2022-12-18T12:06:46;98997.31;;;-2.42;64.13
47374;BME280;33123;50.118;10.272;2022-12-18T12:09:22;99000.03;;;-2.43;64.04
47374;BME280;33123;50.118;10.272;2022-12-18T12:12:10;99000.47;;;-2.38;63.72
47374;BME280;33123;50.118;10.272;2022-12-18T12:14:49;99004.41;;;-2.34;63.75
47374;BME280;33123;50.118;10.272;2022-12-18T12:17:26;99001.81;;;-2.34;63.91
47374;BME280;33123;50.118;10.272;2022-12-18T12:20:02;99001.97;;;-2.35;64.16
47374;BME280;33123;50.118;10.272;2022-12-18T12:22:43;98994.91;;;-2.24;63.90
47374;BME280;33123;50.118;10.272;2022-12-18T12:25:28;98988.97;;;-2.15;63.77
47374;BME280;33123;50.118;10.272;2022-12-18T12:28:11;98995.19;;;-2.17;63.53
47374;BME280;33123;50.118;10.272;2022-12-18T12:30:45;98992.47;;;-2.25;63.95
47374;BME280;33123;50.118;10.272;2022-12-18T12:33:25;98993.88;;;-2.02;63.92
47374;BME280;33123;50.118;10.272;2022-12-18T12:36:00;98995.38;;;-1.90;63.70
47374;BME280;33123;50.118;10.272;2022-12-18T12:38:36;98986.16;;;-1.82;63.43
47374;BME280;33123;50.118;10.272;2022-12-18T12:41:10;98978.00;;;-1.88;63.59
47374;BME280;33123;50.118;10.272;2022-12-18T12:44:01;98967.94;;;-1.81;62.88
47374;BME280;33123;50.118;10.272;2022-12-18T12:46:31;98971.59;;;-1.74;63.31
47374;BME280;33123;50.118;10.272;2022-12-18T12:49:03;98971.75;;;-1.66;62.99
47374;BME280;33123;50.118;10.272;2022-12-18T12:51:33;98972.25;;;-1.52;63.02
47374;BME280;33123;50.118;10.272;2022-12-18T12:54:02;98966.53;;;-1.46;62.59
47374;BME280;33123;50.118;10.272;2022-12-18T12:56:36;98910.94;;;-1.70;63.02
47374;BME280;33123;50.118;10.272;2022-12-18T12:59:13;98964.50;;;-1.33;62.38
47374;BME280;33123;50.118;10.272;2022-12-18T13:01:46;98967.25;;;-1.44;62.37
47374;BME280;33123;50.118;10.272;2022-12-18T13:04:23;98967.19;;;-1.35;62.54
47374;BME280;33123;50.118;10.272;2022-12-18T13:06:58;98935.97;;;-1.61;62.68
47374;BME280;33123;50.118;10.272;2022-12-18T13:09:30;98974.00;;;-1.34;62.68
47374;BME280;33123;50.118;10.272;2022-12-18T13:12:02;98972.91;;;-1.31;62.30
47374;BME280;33123;50.118;10.272;2022-12-18T13:14:47;98960.41;;;-1.36;62.47
47374;BME280;33123;50.118;10.272;2022-12-18T13:17:16;98949.25;;;-1.36;62.70
47374;BME280;33123;50.118;10.272;2022-12-18T13:19:49;98945.44;;;-1.32;62.58
47374;BME280;33123;50.118;10.272;2022-12-18T13:22:34;98905.34;;;-1.55;62.95
47374;BME280;33123;50.118;10.272;2022-12-18T13:25:29;98943.91;;;-1.25;63.17
47374;BME280;33123;50.118;10.272;2022-12-18T13:28:14;98943.19;;;-1.17;62.79